createdAt,value
2019-02-19T00:01:47.099Z,96.30
2019-02-19T00:04:17.226Z,96.40
2019-02-19T00:06:47.365Z,96.60
2019-02-19T00:09:15.820Z,96.90
2019-02-19T00:11:45.216Z,97.10
2019-02-19T00:14:13.716Z,97.10
2019-02-19T00:16:42.278Z,97.30
2019-02-19T00:19:11.975Z,97.30
2019-02-19T00:21:40.488Z,97.30
2019-02-19T00:24:09.077Z,97.20
2019-02-19T00:26:37.543Z,97.10
2019-02-19T00:29:06.030Z,97.00
2019-02-19T00:31:34.493Z,97.00
2019-02-19T00:34:03.081Z,97.30
2019-02-19T00:36:31.585Z,97.50
2019-02-19T00:39:00.211Z,97.90
2019-02-19T00:41:29.207Z,98.20
2019-02-19T00:43:57.769Z,98.40
2019-02-19T00:46:27.769Z,98.80
2019-02-19T00:48:56.237Z,99.00
2019-02-19T00:51:24.813Z,99.20
2019-02-19T00:53:53.310Z,99.90
2019-02-19T00:56:21.853Z,99.90
2019-02-19T00:58:50.343Z,99.90
2019-02-19T01:01:22.240Z,99.90
2019-02-19T01:03:50.521Z,99.90
2019-02-19T01:06:19.155Z,99.90
2019-02-19T01:08:47.663Z,99.90
2019-02-19T01:11:16.193Z,99.90
2019-02-19T01:13:44.759Z,99.90
2019-02-19T01:16:17.685Z,99.90
2019-02-19T01:18:46.273Z,99.90
2019-02-19T01:21:16.010Z,99.90
2019-02-19T01:23:44.477Z,99.90
2019-02-19T01:26:13.178Z,99.90
2019-02-19T01:28:41.767Z,99.90
2019-02-19T01:31:10.303Z,99.90
2019-02-19T01:33:38.755Z,99.90
2019-02-19T01:36:09.750Z,99.90
2019-02-19T01:38:38.343Z,99.90
2019-02-19T01:41:06.866Z,99.90
2019-02-19T01:43:35.533Z,99.90
2019-02-19T01:46:04.008Z,99.90
2019-02-19T01:48:32.793Z,99.90
2019-02-19T01:51:01.345Z,99.90
2019-02-19T01:53:32.727Z,99.90
2019-02-19T01:56:04.267Z,99.90
2019-02-19T01:58:32.881Z,99.90
2019-02-19T02:01:01.344Z,99.90
2019-02-19T02:03:29.881Z,99.90
2019-02-19T02:05:58.386Z,99.90
2019-02-19T02:08:27.015Z,99.90
2019-02-19T02:10:55.559Z,99.90
2019-02-19T02:13:25.592Z,99.90
2019-02-19T02:15:54.150Z,99.90
2019-02-19T02:18:22.864Z,99.90
2019-02-19T02:20:51.406Z,99.90
2019-02-19T02:23:21.589Z,99.90
2019-02-19T02:25:50.067Z,99.90
2019-02-19T02:28:18.662Z,99.90
2019-02-19T02:30:48.139Z,99.90
2019-02-19T02:33:16.601Z,99.90
2019-02-19T02:35:46.288Z,99.90
2019-02-19T02:38:14.861Z,99.90
2019-02-19T02:40:43.318Z,99.90
2019-02-19T02:43:11.801Z,99.90
2019-02-19T02:45:41.454Z,99.90
2019-02-19T02:48:09.944Z,99.90
2019-02-19T02:50:40.049Z,99.90
2019-02-19T02:53:10.173Z,99.90
2019-02-19T02:55:40.278Z,99.90
2019-02-19T02:58:09.137Z,99.90
2019-02-19T03:00:37.608Z,99.90
2019-02-19T03:03:07.373Z,99.90
2019-02-19T03:05:37.542Z,99.90
2019-02-19T03:08:07.681Z,99.90
2019-02-19T03:10:36.591Z,99.90
2019-02-19T03:13:08.064Z,99.90
2019-02-19T03:15:36.558Z,99.90
2019-02-19T03:18:08.527Z,99.90
2019-02-19T03:20:36.984Z,99.90
2019-02-19T03:23:06.844Z,99.90
2019-02-19T03:25:35.348Z,99.90
2019-02-19T03:28:04.786Z,99.90
2019-02-19T03:30:33.343Z,99.90
2019-02-19T03:33:05.046Z,99.90
2019-02-19T03:35:33.505Z,99.90
2019-02-19T03:38:02.000Z,99.90
2019-02-19T03:40:30.783Z,99.90
2019-02-19T03:42:59.299Z,99.90
2019-02-19T03:45:27.820Z,99.90
2019-02-19T03:47:56.848Z,99.90
2019-02-19T03:50:25.309Z,99.90
2019-02-19T03:52:54.784Z,99.90
2019-02-19T03:55:24.481Z,99.90
2019-02-19T03:57:55.643Z,99.90
2019-02-19T04:00:24.682Z,99.90
2019-02-19T04:02:53.719Z,99.90
2019-02-19T04:05:23.607Z,99.90
2019-02-19T04:07:52.160Z,99.90
2019-02-19T04:10:22.007Z,99.90
2019-02-19T04:12:51.947Z,99.90
2019-02-19T04:15:20.524Z,99.90
2019-02-19T04:17:50.523Z,99.90
2019-02-19T04:20:18.984Z,99.90
2019-02-19T04:22:47.493Z,99.90
2019-02-19T04:25:15.977Z,99.90
2019-02-19T04:27:47.190Z,99.90
2019-02-19T04:30:17.179Z,99.90
2019-02-19T04:32:46.872Z,99.90
2019-02-19T04:35:15.332Z,99.90
2019-02-19T04:37:44.575Z,99.90
2019-02-19T04:40:13.099Z,99.90
2019-02-19T04:42:42.599Z,99.90
2019-02-19T04:45:11.102Z,99.90
2019-02-19T04:47:39.627Z,99.90
2019-02-19T04:50:09.716Z,99.90
2019-02-19T04:52:39.723Z,99.90
2019-02-19T04:55:09.765Z,99.90
2019-02-19T04:57:43.865Z,99.90
2019-02-19T05:00:14.697Z,99.90
2019-02-19T05:02:43.383Z,99.90
2019-02-19T05:05:13.005Z,99.90
2019-02-19T05:07:41.565Z,99.90
2019-02-19T05:10:14.095Z,99.90
2019-02-19T05:12:42.654Z,99.90
2019-02-19T05:15:11.726Z,99.90
2019-02-19T05:17:40.439Z,99.90
2019-02-19T05:20:09.540Z,99.90
2019-02-19T05:22:38.435Z,99.90
2019-02-19T05:25:09.367Z,99.90
2019-02-19T05:27:37.824Z,99.90
2019-02-19T05:30:09.825Z,99.90
2019-02-19T05:32:39.393Z,99.90
2019-02-19T05:35:08.744Z,99.90
2019-02-19T05:37:40.664Z,99.90
2019-02-19T05:40:09.980Z,99.90
2019-02-19T05:42:40.247Z,99.90
2019-02-19T05:45:10.359Z,99.90
2019-02-19T05:47:40.972Z,99.90
2019-02-19T05:50:10.297Z,99.90
2019-02-19T05:52:41.800Z,99.90
2019-02-19T05:55:14.467Z,99.90
2019-02-19T05:57:42.932Z,99.90
2019-02-19T06:00:14.821Z,99.90
2019-02-19T06:02:50.345Z,99.90
2019-02-19T06:05:18.808Z,99.90
2019-02-19T06:07:47.366Z,99.90
2019-02-19T06:10:15.836Z,99.90
2019-02-19T06:12:47.410Z,99.90
2019-02-19T06:15:15.915Z,99.90
2019-02-19T06:17:47.167Z,99.90
2019-02-19T06:20:15.634Z,99.90
2019-02-19T06:22:46.519Z,99.90
2019-02-19T06:25:17.946Z,99.90
2019-02-19T06:27:46.403Z,99.90
2019-02-19T06:30:14.978Z,99.90
2019-02-19T06:32:44.504Z,99.90
2019-02-19T06:35:14.006Z,99.90
2019-02-19T06:37:42.598Z,99.90
2019-02-19T06:40:26.128Z,99.90
2019-02-19T06:42:54.659Z,99.90
2019-02-19T06:45:23.109Z,99.90
2019-02-19T06:47:51.590Z,99.90
2019-02-19T06:50:20.153Z,99.90
2019-02-19T06:52:48.808Z,99.90
2019-02-19T06:55:21.386Z,99.90
2019-02-19T06:57:50.938Z,99.90
2019-02-19T07:00:23.019Z,99.90
2019-02-19T07:03:05.239Z,99.90
2019-02-19T07:05:35.138Z,99.90
2019-02-19T07:08:05.172Z,99.90
2019-02-19T07:10:33.778Z,99.90
2019-02-19T07:13:05.608Z,99.90
2019-02-19T07:15:34.184Z,99.90
2019-02-19T07:18:03.151Z,99.90
2019-02-19T07:20:31.610Z,99.90
2019-02-19T07:23:00.077Z,99.90
2019-02-19T07:25:28.702Z,99.90
2019-02-19T07:27:57.172Z,99.90
2019-02-19T07:30:25.706Z,99.90
2019-02-19T07:32:54.394Z,99.90
2019-02-19T07:35:22.854Z,99.90
2019-02-19T07:37:52.863Z,99.90
2019-02-19T07:40:21.424Z,99.90
2019-02-19T07:42:49.903Z,99.90
2019-02-19T07:45:21.318Z,99.90
2019-02-19T07:47:52.277Z,99.90
2019-02-19T07:50:20.767Z,99.90
2019-02-19T07:52:53.450Z,99.90
2019-02-19T07:55:23.835Z,99.90
2019-02-19T07:57:53.991Z,99.90
2019-02-19T08:00:22.505Z,99.90
2019-02-19T08:02:51.073Z,99.90
2019-02-19T08:05:19.592Z,99.90
2019-02-19T08:07:52.889Z,99.90
2019-02-19T08:10:21.341Z,99.90
2019-02-19T08:12:49.974Z,99.90
2019-02-19T08:15:19.547Z,99.90
2019-02-19T08:17:48.006Z,99.90
2019-02-19T08:20:16.508Z,99.90
2019-02-19T08:22:47.750Z,99.90
2019-02-19T08:25:16.453Z,99.90
2019-02-19T08:27:46.277Z,99.90
2019-02-19T08:30:17.385Z,99.90
2019-02-19T08:32:47.097Z,99.90
2019-02-19T08:35:21.164Z,99.90
2019-02-19T08:37:49.651Z,99.90
2019-02-19T08:40:20.804Z,99.90
2019-02-19T08:42:53.434Z,99.90
2019-02-19T08:45:22.003Z,99.90
2019-02-19T08:47:51.515Z,99.90
2019-02-19T08:50:19.983Z,99.90
2019-02-19T08:52:51.397Z,99.90
2019-02-19T08:55:19.946Z,99.90
2019-02-19T08:57:49.667Z,99.90
2019-02-19T09:00:18.171Z,99.90
2019-02-19T09:02:48.055Z,99.90
2019-02-19T09:05:16.585Z,99.90
2019-02-19T09:07:46.365Z,99.90
2019-02-19T09:10:19.443Z,99.90
2019-02-19T09:12:47.917Z,99.90
2019-02-19T09:15:16.716Z,99.90
2019-02-19T09:17:51.741Z,99.90
2019-02-19T09:20:15.574Z,99.90
2019-02-19T09:22:44.239Z,99.90
2019-02-19T09:25:12.685Z,99.90
2019-02-19T09:27:41.149Z,99.90
2019-02-19T09:30:12.222Z,99.90
2019-02-19T09:32:40.857Z,99.90
2019-02-19T09:35:09.799Z,99.90
2019-02-19T09:37:38.408Z,99.90
2019-02-19T09:40:10.253Z,98.50
2019-02-19T09:42:38.900Z,98.40
2019-02-19T09:45:09.993Z,98.10
2019-02-19T09:47:38.461Z,97.30
2019-02-19T09:50:10.038Z,96.70
2019-02-19T09:52:41.111Z,97.10
2019-02-19T09:55:11.179Z,97.50
2019-02-19T09:57:39.686Z,97.30
2019-02-19T10:00:16.397Z,97.50
2019-02-19T10:02:44.871Z,97.00
2019-02-19T10:05:14.954Z,97.20
2019-02-19T10:07:45.276Z,96.40
2019-02-19T10:10:16.959Z,97.00
2019-02-19T10:12:50.360Z,95.20
2019-02-19T10:15:18.919Z,94.40
2019-02-19T10:17:51.620Z,93.30
2019-02-19T10:20:21.724Z,93.10
2019-02-19T10:22:50.340Z,93.10
2019-02-19T10:25:21.574Z,93.10
2019-02-19T10:27:51.163Z,93.10
2019-02-19T10:30:21.160Z,93.00
2019-02-19T10:32:49.870Z,93.10
2019-02-19T10:35:19.810Z,93.20
2019-02-19T10:37:48.369Z,93.20
2019-02-19T10:40:20.958Z,93.20
2019-02-19T10:42:50.331Z,93.20
2019-02-19T10:45:27.922Z,93.20
2019-02-19T10:47:56.394Z,93.20
2019-02-19T10:50:27.831Z,92.40
2019-02-19T10:52:56.667Z,92.40
2019-02-19T10:55:25.204Z,92.60
2019-02-19T10:57:53.775Z,91.70
2019-02-19T11:00:23.610Z,92.00
2019-02-19T11:02:52.156Z,92.70
2019-02-19T11:05:23.159Z,92.60
2019-02-19T11:07:53.622Z,93.10
2019-02-19T11:10:23.112Z,93.00
2019-02-19T11:12:51.644Z,93.00
2019-02-19T11:15:21.774Z,93.00
2019-02-19T11:17:50.315Z,93.10
2019-02-19T11:20:20.767Z,91.30
2019-02-19T11:22:52.118Z,90.90
2019-02-19T11:25:20.582Z,89.10
2019-02-19T11:27:50.428Z,88.10
2019-02-19T11:30:20.606Z,87.30
2019-02-19T11:32:54.583Z,87.90
2019-02-19T11:35:24.093Z,87.30
2019-02-19T11:37:52.625Z,90.00
2019-02-19T11:40:22.619Z,90.00
2019-02-19T11:42:51.293Z,89.10
2019-02-19T11:45:22.014Z,90.10
2019-02-19T11:47:50.496Z,87.00
2019-02-19T11:50:19.122Z,86.20
2019-02-19T11:52:47.601Z,82.80
2019-02-19T11:55:39.916Z,85.60
2019-02-19T11:58:08.375Z,86.50
2019-02-19T12:00:38.655Z,85.70
2019-02-19T12:03:09.209Z,86.30
2019-02-19T12:05:39.224Z,85.50
2019-02-19T12:08:10.289Z,84.90
2019-02-19T12:10:38.853Z,86.00
2019-02-19T12:13:08.337Z,87.10
2019-02-19T12:15:38.341Z,86.80
2019-02-19T12:18:08.111Z,87.90
2019-02-19T12:20:36.573Z,88.20
2019-02-19T12:23:06.517Z,87.50
2019-02-19T12:25:35.379Z,87.60
2019-02-19T12:28:05.081Z,87.10
2019-02-19T12:30:36.481Z,85.60
2019-02-19T12:33:07.477Z,84.30
2019-02-19T12:35:39.200Z,85.90
2019-02-19T12:38:07.695Z,86.70
2019-02-19T12:40:36.225Z,85.50
2019-02-19T12:43:07.525Z,86.40
2019-02-19T12:45:35.994Z,87.80
2019-02-19T12:48:04.679Z,89.50
2019-02-19T12:50:33.227Z,88.40
2019-02-19T12:53:01.882Z,87.30
2019-02-19T12:55:31.421Z,85.80
2019-02-19T12:57:59.886Z,86.40
2019-02-19T13:00:28.537Z,87.50
2019-02-19T13:02:57.266Z,88.20
2019-02-19T13:05:25.845Z,88.70
2019-02-19T13:07:54.494Z,87.30
2019-02-19T13:10:23.113Z,86.10
2019-02-19T13:12:55.384Z,83.90
2019-02-19T13:15:27.999Z,81.80
2019-02-19T13:17:56.486Z,79.80
2019-02-19T13:20:26.564Z,80.00
2019-02-19T13:22:55.202Z,82.50
2019-02-19T13:25:23.692Z,83.10
2019-02-19T13:27:52.298Z,78.40
2019-02-19T13:30:22.131Z,78.00
2019-02-19T13:32:55.347Z,79.10
2019-02-19T13:35:23.853Z,80.40
2019-02-19T13:37:56.818Z,82.00
2019-02-19T13:40:25.302Z,82.40
2019-02-19T13:42:53.950Z,83.30
2019-02-19T13:45:25.642Z,85.00
2019-02-19T13:47:54.178Z,85.00
2019-02-19T13:50:32.394Z,85.60
2019-02-19T13:53:19.890Z,85.60
2019-02-19T13:55:50.229Z,85.20
2019-02-19T13:58:23.156Z,84.90
2019-02-19T14:00:51.917Z,84.90
2019-02-19T14:03:23.564Z,84.60
2019-02-19T14:05:52.034Z,84.70
2019-02-19T14:08:24.439Z,84.80
2019-02-19T14:10:54.823Z,84.90
2019-02-19T14:13:23.557Z,85.30
2019-02-19T14:15:58.779Z,84.00
2019-02-19T14:18:45.129Z,81.90
2019-02-19T14:21:19.138Z,81.50
2019-02-19T14:23:59.282Z,81.70
2019-02-19T14:26:44.350Z,82.20
2019-02-19T14:29:20.020Z,83.00
2019-02-19T14:32:06.513Z,82.40
2019-02-19T14:34:52.593Z,82.10
2019-02-19T14:37:39.042Z,82.40
2019-02-19T14:40:18.918Z,81.90
2019-02-19T14:43:06.945Z,81.70
2019-02-19T14:45:39.713Z,81.20
2019-02-19T14:48:29.352Z,80.50
2019-02-19T14:51:16.142Z,79.20
2019-02-19T14:53:47.923Z,79.80
2019-02-19T14:56:38.279Z,80.70
2019-02-19T14:59:20.893Z,81.00
2019-02-19T15:01:57.005Z,81.30
2019-02-19T15:04:29.652Z,82.40
2019-02-19T15:06:59.853Z,83.20
2019-02-19T15:09:30.565Z,84.70
2019-02-19T15:12:02.082Z,86.80
2019-02-19T15:14:51.673Z,86.60
2019-02-19T15:17:33.828Z,86.30
2019-02-19T15:20:03.932Z,86.60
2019-02-19T15:22:34.253Z,86.60
2019-02-19T15:25:07.209Z,87.00
2019-02-19T15:27:37.309Z,87.20
2019-02-19T15:30:09.490Z,86.50
2019-02-19T15:32:54.589Z,87.50
2019-02-19T15:35:30.467Z,85.90
2019-02-19T15:38:06.259Z,86.40
2019-02-19T15:40:45.083Z,87.00
2019-02-19T15:43:23.811Z,87.60
2019-02-19T15:45:53.919Z,88.00
2019-02-19T15:48:26.775Z,88.60
2019-02-19T15:51:02.751Z,88.50
2019-02-19T15:53:35.545Z,88.20
2019-02-19T15:56:23.441Z,86.60
2019-02-19T15:59:11.800Z,86.50
2019-02-19T16:01:44.645Z,86.00
2019-02-19T16:04:29.593Z,85.40
2019-02-19T16:07:14.700Z,85.20
2019-02-19T16:09:48.634Z,85.80
2019-02-19T16:12:21.413Z,85.80
2019-02-19T16:14:54.513Z,85.40
2019-02-19T16:17:42.766Z,85.40
2019-02-19T16:20:15.610Z,85.80
2019-02-19T16:22:48.463Z,85.80
2019-02-19T16:25:27.704Z,86.30
2019-02-19T16:27:58.794Z,86.70
2019-02-19T16:30:28.897Z,87.20
2019-02-19T16:33:08.662Z,87.50
2019-02-19T16:35:41.915Z,87.40
2019-02-19T16:38:25.192Z,88.20
2019-02-19T16:40:59.614Z,88.20
2019-02-19T16:43:47.718Z,89.00
2019-02-19T16:46:23.592Z,90.10
2019-02-19T16:48:53.830Z,90.30
2019-02-19T16:51:45.441Z,90.30
2019-02-19T16:54:35.682Z,90.50
2019-02-19T16:57:17.718Z,90.70
2019-02-19T16:59:54.730Z,91.00
2019-02-19T17:02:34.512Z,91.70
2019-02-19T17:05:21.844Z,92.90
2019-02-19T17:07:52.074Z,92.50
2019-02-19T17:10:30.995Z,92.10
2019-02-19T17:13:07.454Z,91.20
2019-02-19T17:15:53.557Z,91.60
2019-02-19T17:18:41.144Z,91.40
2019-02-19T17:21:23.125Z,91.40
2019-02-19T17:23:53.379Z,91.50
2019-02-19T17:26:39.716Z,91.80
2019-02-19T17:29:13.895Z,92.00
2019-02-19T17:31:44.536Z,92.40
2019-02-19T17:34:29.348Z,92.70
2019-02-19T17:37:17.423Z,92.70
2019-02-19T17:39:50.368Z,92.70
2019-02-19T17:42:23.527Z,92.70
2019-02-19T17:45:08.554Z,92.60
2019-02-19T17:47:38.687Z,92.60
2019-02-19T17:50:14.212Z,92.60
2019-02-19T17:52:55.512Z,92.60
2019-02-19T17:55:44.473Z,92.60
2019-02-19T17:58:32.654Z,92.60
2019-02-19T18:01:21.062Z,92.60
2019-02-19T18:03:51.269Z,92.60
2019-02-19T18:06:21.480Z,92.60
2019-02-19T18:09:00.280Z,92.50
2019-02-19T18:11:33.225Z,92.50
2019-02-19T18:14:13.613Z,92.50
2019-02-19T18:16:52.099Z,93.30
2019-02-19T18:19:22.110Z,92.80
2019-02-19T18:21:50.684Z,93.00
2019-02-19T18:24:20.531Z,93.30
2019-02-19T18:26:49.074Z,93.70
2019-02-19T18:29:21.911Z,93.90
2019-02-19T18:31:50.910Z,94.10
2019-02-19T18:34:19.463Z,94.10
2019-02-19T18:36:48.087Z,94.30
2019-02-19T18:39:16.638Z,94.40
2019-02-19T18:41:45.118Z,94.50
2019-02-19T18:44:13.850Z,94.80
2019-02-19T18:46:44.633Z,94.80
2019-02-19T18:49:13.616Z,95.00
2019-02-19T18:51:43.829Z,94.90
2019-02-19T18:54:12.564Z,95.20
2019-02-19T18:56:43.249Z,95.20
2019-02-19T18:59:11.934Z,95.40
2019-02-19T19:01:44.666Z,95.60
2019-02-19T19:04:13.119Z,95.70
2019-02-19T19:06:44.786Z,95.90
2019-02-19T19:09:13.338Z,96.50
2019-02-19T19:11:42.176Z,96.20
2019-02-19T19:14:10.681Z,96.40
2019-02-19T19:16:39.155Z,96.70
2019-02-19T19:19:09.179Z,96.90
2019-02-19T19:21:37.842Z,96.90
2019-02-19T19:26:48.149Z,97.10
2019-02-19T19:29:19.130Z,97.30
2019-02-19T19:31:59.649Z,97.30
2019-02-19T19:34:28.130Z,97.50
2019-02-19T19:36:56.844Z,97.80
2019-02-19T19:39:31.030Z,97.80
2019-02-19T19:42:01.041Z,97.80
2019-02-19T19:44:29.715Z,98.00
2019-02-19T19:47:01.705Z,98.10
2019-02-19T19:49:30.205Z,98.20
2019-02-19T19:52:01.569Z,98.40
2019-02-19T19:54:31.075Z,98.60
2019-02-19T19:57:02.158Z,98.70
2019-02-19T19:59:32.019Z,98.90
2019-02-19T20:02:00.485Z,98.90
2019-02-19T20:04:30.509Z,99.10
2019-02-19T20:07:00.914Z,99.10
2019-02-19T20:09:31.472Z,99.30
2019-02-19T20:12:00.150Z,99.40
2019-02-19T20:14:31.982Z,99.40
2019-02-19T20:17:03.600Z,99.60
2019-02-19T20:19:32.068Z,99.60
2019-02-19T20:22:00.555Z,99.70
2019-02-19T20:24:29.076Z,99.70
2019-02-19T20:26:58.147Z,99.60
2019-02-19T20:29:26.835Z,99.70
2019-02-19T20:31:55.297Z,99.60
2019-02-19T20:34:25.338Z,99.70
2019-02-19T20:36:54.039Z,99.90
2019-02-19T20:39:25.075Z,99.90
2019-02-19T20:41:53.743Z,99.90
2019-02-19T20:44:22.237Z,99.90
2019-02-19T20:46:50.771Z,99.90
2019-02-19T20:49:25.734Z,99.90
2019-02-19T20:51:54.288Z,99.90
2019-02-19T20:54:23.266Z,99.90
2019-02-19T20:56:55.836Z,99.90
2019-02-19T20:59:24.552Z,99.90
2019-02-19T21:01:58.826Z,99.90
2019-02-19T21:04:27.278Z,99.90
2019-02-19T21:06:55.963Z,99.90
2019-02-19T21:09:24.418Z,99.90
2019-02-19T21:11:52.888Z,99.90
2019-02-19T21:14:21.611Z,99.90
2019-02-19T21:16:50.108Z,99.90
2019-02-19T21:19:21.485Z,99.90
2019-02-19T21:21:49.970Z,99.90
2019-02-19T21:24:19.333Z,99.90
2019-02-19T21:26:49.682Z,99.90
2019-02-19T21:29:19.787Z,99.90
2019-02-19T21:31:48.239Z,99.90
2019-02-19T21:34:17.839Z,99.90
2019-02-19T21:36:49.077Z,99.90
2019-02-19T21:39:17.729Z,99.90
2019-02-19T21:41:47.798Z,99.90
2019-02-19T21:44:16.293Z,99.90
2019-02-19T21:46:49.239Z,99.90
2019-02-19T21:49:17.879Z,99.90
2019-02-19T21:51:53.951Z,99.90
2019-02-19T21:54:18.129Z,99.90
2019-02-19T21:56:48.795Z,99.90
2019-02-19T21:59:17.402Z,99.90
2019-02-19T22:01:47.785Z,99.90
2019-02-19T22:04:18.258Z,99.90
2019-02-19T22:06:47.000Z,99.90
2019-02-19T22:09:16.993Z,99.90
2019-02-19T22:11:45.461Z,99.90
2019-02-19T22:14:17.017Z,99.90
2019-02-19T22:16:45.602Z,99.90
2019-02-19T22:19:18.006Z,99.90
2019-02-19T22:21:49.954Z,99.90
2019-02-19T22:24:20.159Z,99.90
2019-02-19T22:26:50.513Z,99.90
2019-02-19T22:29:19.224Z,99.90
2019-02-19T22:31:51.072Z,99.90
2019-02-19T22:34:19.631Z,99.90
2019-02-19T22:36:49.286Z,99.90
2019-02-19T22:39:17.897Z,99.90
2019-02-19T22:41:50.497Z,99.90
2019-02-19T22:44:20.530Z,99.90
2019-02-19T22:46:49.151Z,99.90
2019-02-19T22:49:17.910Z,99.90
2019-02-19T22:51:46.911Z,99.90
2019-02-19T22:54:17.019Z,99.90
2019-02-19T22:56:46.936Z,99.90
2019-02-19T22:59:20.455Z,99.90
2019-02-19T23:01:53.012Z,99.90
2019-02-19T23:04:21.496Z,99.90
2019-02-19T23:07:00.164Z,99.90
2019-02-19T23:09:23.626Z,99.90
2019-02-19T23:11:52.100Z,99.90
2019-02-19T23:14:22.280Z,99.90
2019-02-19T23:16:52.146Z,99.90
2019-02-19T23:19:20.630Z,99.90
2019-02-19T23:21:51.185Z,99.90
2019-02-19T23:24:21.300Z,99.90
2019-02-19T23:26:50.046Z,99.90
2019-02-19T23:29:18.614Z,99.90
2019-02-19T23:31:48.681Z,99.90
2019-02-19T23:34:20.772Z,99.90
2019-02-19T23:36:50.267Z,99.90
2019-02-19T23:39:18.838Z,99.90
2019-02-19T23:41:47.357Z,99.90
2019-02-19T23:44:16.028Z,99.90
2019-02-19T23:46:44.527Z,99.90
2019-02-19T23:49:12.984Z,99.90
2019-02-19T23:51:41.438Z,99.90
2019-02-19T23:54:09.938Z,99.90
2019-02-19T23:56:41.432Z,99.90
2019-02-19T23:59:09.958Z,99.90
